sensor_id;sensor_type;location;lat;lon;timestamp;P1;durP1;ratioP1;P2;durP2;ratioP2
11747;SDS011;5931;48.832;9.072;2024-01-30T00:01:58;12.27;;;6.40;;
11747;SDS011;5931;48.832;9.072;2024-01-30T00:04:24;9.90;;;6.03;;
11747;SDS011;5931;48.832;9.072;2024-01-30T00:06:50;10.20;;;5.20;;
11747;SDS011;5931;48.832;9.072;2024-01-30T00:09:18;11.40;;;6.50;;
11747;SDS011;5931;48.832;9.072;2024-01-30T00:11:44;10.63;;;7.00;;
11747;SDS011;5931;48.832;9.072;2024-01-30T00:14:10;10.17;;;6.77;;
11747;SDS011;5931;48.832;9.072;2024-01-30T00:16:36;10.23;;;5.93;;
11747;SDS011;5931;48.832;9.072;2024-01-30T00:19:02;12.03;;;6.57;;
11747;SDS011;5931;48.832;9.072;2024-01-30T00:21:28;8.98;;;5.63;;
11747;SDS011;5931;48.832;9.072;2024-01-30T00:23:54;12.57;;;6.47;;
11747;SDS011;5931;48.832;9.072;2024-01-30T00:26:20;9.67;;;6.03;;
11747;SDS011;5931;48.832;9.072;2024-01-30T00:28:46;12.10;;;6.60;;
11747;SDS011;5931;48.832;9.072;2024-01-30T00:31:12;12.10;;;6.00;;
11747;SDS011;5931;48.832;9.072;2024-01-30T00:33:40;11.50;;;7.00;;
11747;SDS011;5931;48.832;9.072;2024-01-30T00:36:07;15.13;;;7.57;;
11747;SDS011;5931;48.832;9.072;2024-01-30T00:38:33;14.30;;;6.78;;
11747;SDS011;5931;48.832;9.072;2024-01-30T00:40:59;10.40;;;6.07;;
11747;SDS011;5931;48.832;9.072;2024-01-30T00:43:27;12.65;;;6.43;;
11747;SDS011;5931;48.832;9.072;2024-01-30T00:45:53;10.77;;;6.72;;
11747;SDS011;5931;48.832;9.072;2024-01-30T00:48:19;11.02;;;6.45;;
11747;SDS011;5931;48.832;9.072;2024-01-30T00:50:45;15.93;;;6.00;;
11747;SDS011;5931;48.832;9.072;2024-01-30T00:53:11;9.67;;;6.00;;
11747;SDS011;5931;48.832;9.072;2024-01-30T00:55:37;9.90;;;6.93;;
11747;SDS011;5931;48.832;9.072;2024-01-30T00:58:02;14.00;;;6.63;;
11747;SDS011;5931;48.832;9.072;2024-01-30T01:00:29;11.13;;;6.88;;
11747;SDS011;5931;48.832;9.072;2024-01-30T01:02:57;9.65;;;6.55;;
11747;SDS011;5931;48.832;9.072;2024-01-30T01:05:23;12.18;;;6.68;;
11747;SDS011;5931;48.832;9.072;2024-01-30T01:07:49;9.57;;;6.03;;
11747;SDS011;5931;48.832;9.072;2024-01-30T01:10:18;13.30;;;7.23;;
11747;SDS011;5931;48.832;9.072;2024-01-30T01:12:45;13.27;;;6.30;;
11747;SDS011;5931;48.832;9.072;2024-01-30T01:15:11;9.05;;;6.07;;
11747;SDS011;5931;48.832;9.072;2024-01-30T01:17:38;15.43;;;6.00;;
11747;SDS011;5931;48.832;9.072;2024-01-30T01:20:04;8.60;;;6.78;;
11747;SDS011;5931;48.832;9.072;2024-01-30T01:22:31;14.45;;;6.90;;
11747;SDS011;5931;48.832;9.072;2024-01-30T01:24:58;11.40;;;6.20;;
11747;SDS011;5931;48.832;9.072;2024-01-30T01:27:24;8.10;;;5.88;;
11747;SDS011;5931;48.832;9.072;2024-01-30T01:29:50;11.30;;;5.85;;
11747;SDS011;5931;48.832;9.072;2024-01-30T01:32:19;12.25;;;6.95;;
11747;SDS011;5931;48.832;9.072;2024-01-30T01:34:45;8.93;;;6.37;;
11747;SDS011;5931;48.832;9.072;2024-01-30T01:37:10;9.23;;;5.80;;
11747;SDS011;5931;48.832;9.072;2024-01-30T01:39:36;13.10;;;6.63;;
11747;SDS011;5931;48.832;9.072;2024-01-30T01:42:02;20.30;;;11.07;;
11747;SDS011;5931;48.832;9.072;2024-01-30T01:44:28;29.25;;;16.80;;
11747;SDS011;5931;48.832;9.072;2024-01-30T01:46:54;26.00;;;15.33;;
11747;SDS011;5931;48.832;9.072;2024-01-30T01:49:22;23.27;;;12.85;;
11747;SDS011;5931;48.832;9.072;2024-01-30T01:51:49;28.27;;;14.73;;
11747;SDS011;5931;48.832;9.072;2024-01-30T01:54:17;19.63;;;11.85;;
11747;SDS011;5931;48.832;9.072;2024-01-30T01:56:43;17.80;;;9.35;;
11747;SDS011;5931;48.832;9.072;2024-01-30T01:59:09;22.05;;;11.07;;
11747;SDS011;5931;48.832;9.072;2024-01-30T02:01:38;13.93;;;8.60;;
11747;SDS011;5931;48.832;9.072;2024-01-30T02:04:07;10.65;;;7.00;;
11747;SDS011;5931;48.832;9.072;2024-01-30T02:06:33;12.65;;;7.20;;
11747;SDS011;5931;48.832;9.072;2024-01-30T02:09:00;11.45;;;6.63;;
11747;SDS011;5931;48.832;9.072;2024-01-30T02:11:26;11.80;;;6.85;;
11747;SDS011;5931;48.832;9.072;2024-01-30T02:13:53;11.90;;;7.32;;
11747;SDS011;5931;48.832;9.072;2024-01-30T02:16:19;13.77;;;7.10;;
11747;SDS011;5931;48.832;9.072;2024-01-30T02:18:44;10.87;;;7.53;;
11747;SDS011;5931;48.832;9.072;2024-01-30T02:21:23;10.20;;;6.75;;
11747;SDS011;5931;48.832;9.072;2024-01-30T02:23:49;14.18;;;7.18;;
11747;SDS011;5931;48.832;9.072;2024-01-30T02:26:17;9.95;;;6.93;;
11747;SDS011;5931;48.832;9.072;2024-01-30T02:28:43;14.40;;;7.57;;
11747;SDS011;5931;48.832;9.072;2024-01-30T02:31:08;17.03;;;9.10;;
11747;SDS011;5931;48.832;9.072;2024-01-30T02:33:34;13.90;;;7.70;;
11747;SDS011;5931;48.832;9.072;2024-01-30T02:36:00;16.07;;;7.10;;
11747;SDS011;5931;48.832;9.072;2024-01-30T02:38:26;13.30;;;7.43;;
11747;SDS011;5931;48.832;9.072;2024-01-30T02:40:52;11.85;;;5.97;;
11747;SDS011;5931;48.832;9.072;2024-01-30T02:43:18;10.18;;;6.57;;
11747;SDS011;5931;48.832;9.072;2024-01-30T02:45:44;11.27;;;5.60;;
11747;SDS011;5931;48.832;9.072;2024-01-30T02:48:10;11.70;;;6.47;;
11747;SDS011;5931;48.832;9.072;2024-01-30T02:50:36;10.97;;;6.00;;
11747;SDS011;5931;48.832;9.072;2024-01-30T02:53:01;8.33;;;5.87;;
11747;SDS011;5931;48.832;9.072;2024-01-30T02:55:27;11.57;;;6.23;;
11747;SDS011;5931;48.832;9.072;2024-01-30T02:57:53;10.23;;;6.50;;
11747;SDS011;5931;48.832;9.072;2024-01-30T03:00:19;14.83;;;6.23;;
11747;SDS011;5931;48.832;9.072;2024-01-30T03:02:45;11.27;;;7.18;;
11747;SDS011;5931;48.832;9.072;2024-01-30T03:05:11;13.33;;;7.00;;
11747;SDS011;5931;48.832;9.072;2024-01-30T03:07:37;12.80;;;6.30;;
11747;SDS011;5931;48.832;9.072;2024-01-30T03:10:04;11.57;;;5.83;;
11747;SDS011;5931;48.832;9.072;2024-01-30T03:12:31;12.70;;;6.60;;
11747;SDS011;5931;48.832;9.072;2024-01-30T03:14:57;11.98;;;7.18;;
11747;SDS011;5931;48.832;9.072;2024-01-30T03:17:23;8.40;;;6.57;;
11747;SDS011;5931;48.832;9.072;2024-01-30T03:19:49;14.40;;;6.35;;
11747;SDS011;5931;48.832;9.072;2024-01-30T03:22:15;9.23;;;5.63;;
11747;SDS011;5931;48.832;9.072;2024-01-30T03:24:41;9.03;;;5.83;;
11747;SDS011;5931;48.832;9.072;2024-01-30T03:27:07;11.07;;;5.70;;
11747;SDS011;5931;48.832;9.072;2024-01-30T03:29:33;13.65;;;7.05;;
11747;SDS011;5931;48.832;9.072;2024-01-30T03:31:59;10.60;;;6.20;;
11747;SDS011;5931;48.832;9.072;2024-01-30T03:34:25;9.83;;;5.53;;
11747;SDS011;5931;48.832;9.072;2024-01-30T03:36:51;8.57;;;5.77;;
11747;SDS011;5931;48.832;9.072;2024-01-30T03:39:16;9.23;;;5.73;;
11747;SDS011;5931;48.832;9.072;2024-01-30T03:41:42;10.27;;;6.17;;
11747;SDS011;5931;48.832;9.072;2024-01-30T03:44:09;8.23;;;5.30;;
11747;SDS011;5931;48.832;9.072;2024-01-30T03:46:35;9.65;;;5.90;;
11747;SDS011;5931;48.832;9.072;2024-01-30T03:49:01;9.80;;;6.20;;
11747;SDS011;5931;48.832;9.072;2024-01-30T03:51:27;11.37;;;5.90;;
11747;SDS011;5931;48.832;9.072;2024-01-30T03:53:53;9.93;;;5.53;;
11747;SDS011;5931;48.832;9.072;2024-01-30T03:56:18;6.43;;;4.80;;
11747;SDS011;5931;48.832;9.072;2024-01-30T03:58:44;11.33;;;6.40;;
11747;SDS011;5931;48.832;9.072;2024-01-30T04:01:13;10.00;;;6.63;;
11747;SDS011;5931;48.832;9.072;2024-01-30T04:03:40;7.00;;;5.30;;
11747;SDS011;5931;48.832;9.072;2024-01-30T04:06:07;12.63;;;6.55;;
11747;SDS011;5931;48.832;9.072;2024-01-30T04:08:33;6.90;;;5.22;;
11747;SDS011;5931;48.832;9.072;2024-01-30T04:11:02;8.00;;;4.73;;
11747;SDS011;5931;48.832;9.072;2024-01-30T04:13:32;7.95;;;4.70;;
11747;SDS011;5931;48.832;9.072;2024-01-30T04:16:01;9.13;;;5.35;;
11747;SDS011;5931;48.832;9.072;2024-01-30T04:18:28;8.30;;;5.40;;
11747;SDS011;5931;48.832;9.072;2024-01-30T04:20:54;9.80;;;6.15;;
11747;SDS011;5931;48.832;9.072;2024-01-30T04:23:19;12.70;;;5.03;;
11747;SDS011;5931;48.832;9.072;2024-01-30T04:25:45;9.27;;;4.83;;
11747;SDS011;5931;48.832;9.072;2024-01-30T04:28:11;9.13;;;4.93;;
11747;SDS011;5931;48.832;9.072;2024-01-30T04:30:37;10.43;;;6.57;;
11747;SDS011;5931;48.832;9.072;2024-01-30T04:33:03;10.43;;;5.43;;
11747;SDS011;5931;48.832;9.072;2024-01-30T04:35:29;8.38;;;5.82;;
11747;SDS011;5931;48.832;9.072;2024-01-30T04:37:55;8.10;;;4.83;;
11747;SDS011;5931;48.832;9.072;2024-01-30T04:40:21;16.70;;;7.17;;
11747;SDS011;5931;48.832;9.072;2024-01-30T04:42:47;10.23;;;6.63;;
11747;SDS011;5931;48.832;9.072;2024-01-30T04:45:13;7.73;;;5.60;;
11747;SDS011;5931;48.832;9.072;2024-01-30T04:47:38;8.83;;;4.50;;
11747;SDS011;5931;48.832;9.072;2024-01-30T04:50:06;9.57;;;5.53;;
11747;SDS011;5931;48.832;9.072;2024-01-30T04:52:32;11.93;;;6.40;;
11747;SDS011;5931;48.832;9.072;2024-01-30T04:54:58;11.43;;;6.50;;
11747;SDS011;5931;48.832;9.072;2024-01-30T04:57:24;9.27;;;5.93;;
11747;SDS011;5931;48.832;9.072;2024-01-30T04:59:50;11.67;;;6.17;;
11747;SDS011;5931;48.832;9.072;2024-01-30T05:02:15;8.73;;;5.50;;
11747;SDS011;5931;48.832;9.072;2024-01-30T05:04:41;9.27;;;6.60;;
11747;SDS011;5931;48.832;9.072;2024-01-30T05:07:07;9.30;;;6.00;;
11747;SDS011;5931;48.832;9.072;2024-01-30T05:09:33;13.00;;;6.17;;
11747;SDS011;5931;48.832;9.072;2024-01-30T05:11:58;9.20;;;6.13;;
11747;SDS011;5931;48.832;9.072;2024-01-30T05:14:24;12.60;;;5.63;;
11747;SDS011;5931;48.832;9.072;2024-01-30T05:16:50;10.53;;;6.07;;
11747;SDS011;5931;48.832;9.072;2024-01-30T05:19:16;12.07;;;6.20;;
11747;SDS011;5931;48.832;9.072;2024-01-30T05:21:42;10.77;;;6.40;;
11747;SDS011;5931;48.832;9.072;2024-01-30T05:24:08;8.53;;;6.10;;
11747;SDS011;5931;48.832;9.072;2024-01-30T05:26:35;12.35;;;5.95;;
11747;SDS011;5931;48.832;9.072;2024-01-30T05:29:01;8.93;;;5.45;;
11747;SDS011;5931;48.832;9.072;2024-01-30T05:31:28;8.55;;;5.50;;
11747;SDS011;5931;48.832;9.072;2024-01-30T05:33:54;9.95;;;4.95;;
11747;SDS011;5931;48.832;9.072;2024-01-30T05:36:20;8.38;;;5.97;;
11747;SDS011;5931;48.832;9.072;2024-01-30T05:38:47;16.35;;;7.80;;
11747;SDS011;5931;48.832;9.072;2024-01-30T05:41:12;10.17;;;6.40;;
11747;SDS011;5931;48.832;9.072;2024-01-30T05:43:38;8.88;;;7.03;;
11747;SDS011;5931;48.832;9.072;2024-01-30T05:46:04;10.70;;;6.90;;
11747;SDS011;5931;48.832;9.072;2024-01-30T05:48:31;13.18;;;6.65;;
11747;SDS011;5931;48.832;9.072;2024-01-30T05:50:57;15.20;;;6.60;;
11747;SDS011;5931;48.832;9.072;2024-01-30T05:53:25;11.23;;;5.95;;
11747;SDS011;5931;48.832;9.072;2024-01-30T05:55:50;9.87;;;6.60;;
11747;SDS011;5931;48.832;9.072;2024-01-30T05:58:16;9.20;;;5.53;;
11747;SDS011;5931;48.832;9.072;2024-01-30T06:00:42;12.10;;;7.27;;
11747;SDS011;5931;48.832;9.072;2024-01-30T06:03:08;8.50;;;6.13;;
11747;SDS011;5931;48.832;9.072;2024-01-30T06:05:33;10.27;;;6.00;;
11747;SDS011;5931;48.832;9.072;2024-01-30T06:07:59;13.47;;;7.93;;
11747;SDS011;5931;48.832;9.072;2024-01-30T06:10:25;12.77;;;7.67;;
11747;SDS011;5931;48.832;9.072;2024-01-30T06:12:51;9.73;;;7.27;;
11747;SDS011;5931;48.832;9.072;2024-01-30T06:15:16;14.13;;;6.90;;
11747;SDS011;5931;48.832;9.072;2024-01-30T06:17:42;10.80;;;5.50;;
11747;SDS011;5931;48.832;9.072;2024-01-30T06:20:08;13.03;;;6.50;;
11747;SDS011;5931;48.832;9.072;2024-01-30T06:22:34;10.83;;;7.23;;
11747;SDS011;5931;48.832;9.072;2024-01-30T06:25:00;12.35;;;7.18;;
11747;SDS011;5931;48.832;9.072;2024-01-30T06:27:26;17.13;;;8.13;;
11747;SDS011;5931;48.832;9.072;2024-01-30T06:29:52;13.97;;;8.70;;
11747;SDS011;5931;48.832;9.072;2024-01-30T06:32:17;16.03;;;9.10;;
11747;SDS011;5931;48.832;9.072;2024-01-30T06:34:43;12.73;;;6.90;;
11747;SDS011;5931;48.832;9.072;2024-01-30T06:37:09;8.33;;;6.13;;
11747;SDS011;5931;48.832;9.072;2024-01-30T06:39:35;14.15;;;7.70;;
11747;SDS011;5931;48.832;9.072;2024-01-30T06:42:01;10.27;;;7.30;;
11747;SDS011;5931;48.832;9.072;2024-01-30T06:44:27;15.43;;;7.47;;
11747;SDS011;5931;48.832;9.072;2024-01-30T06:46:53;14.43;;;7.47;;
11747;SDS011;5931;48.832;9.072;2024-01-30T06:49:19;12.10;;;7.90;;
11747;SDS011;5931;48.832;9.072;2024-01-30T06:51:47;16.05;;;7.68;;
11747;SDS011;5931;48.832;9.072;2024-01-30T06:54:13;13.07;;;8.00;;
11747;SDS011;5931;48.832;9.072;2024-01-30T06:56:38;10.80;;;8.40;;
11747;SDS011;5931;48.832;9.072;2024-01-30T06:59:04;12.75;;;8.10;;
11747;SDS011;5931;48.832;9.072;2024-01-30T07:01:30;16.33;;;8.77;;
11747;SDS011;5931;48.832;9.072;2024-01-30T07:03:57;14.68;;;8.07;;
11747;SDS011;5931;48.832;9.072;2024-01-30T07:06:22;18.40;;;10.50;;
11747;SDS011;5931;48.832;9.072;2024-01-30T07:08:49;11.00;;;7.80;;
11747;SDS011;5931;48.832;9.072;2024-01-30T07:11:21;15.52;;;9.38;;
11747;SDS011;5931;48.832;9.072;2024-01-30T07:13:49;15.32;;;7.57;;
11747;SDS011;5931;48.832;9.072;2024-01-30T07:16:16;14.80;;;9.35;;
11747;SDS011;5931;48.832;9.072;2024-01-30T07:18:42;12.80;;;7.67;;
11747;SDS011;5931;48.832;9.072;2024-01-30T07:21:08;14.88;;;7.97;;
11747;SDS011;5931;48.832;9.072;2024-01-30T07:23:34;15.97;;;7.97;;
11747;SDS011;5931;48.832;9.072;2024-01-30T07:26:03;15.50;;;8.23;;
11747;SDS011;5931;48.832;9.072;2024-01-30T07:28:32;14.32;;;7.93;;
11747;SDS011;5931;48.832;9.072;2024-01-30T07:30:58;14.32;;;7.43;;
11747;SDS011;5931;48.832;9.072;2024-01-30T07:33:24;23.77;;;8.50;;
11747;SDS011;5931;48.832;9.072;2024-01-30T07:35:51;16.00;;;8.37;;
11747;SDS011;5931;48.832;9.072;2024-01-30T07:38:18;13.50;;;7.32;;
11747;SDS011;5931;48.832;9.072;2024-01-30T07:40:43;12.63;;;7.30;;
11747;SDS011;5931;48.832;9.072;2024-01-30T07:43:09;8.87;;;6.70;;
11747;SDS011;5931;48.832;9.072;2024-01-30T07:45:35;11.13;;;6.47;;
11747;SDS011;5931;48.832;9.072;2024-01-30T07:48:02;15.30;;;7.47;;
11747;SDS011;5931;48.832;9.072;2024-01-30T07:50:28;14.87;;;7.60;;
11747;SDS011;5931;48.832;9.072;2024-01-30T07:52:59;14.53;;;7.77;;
11747;SDS011;5931;48.832;9.072;2024-01-30T07:55:25;15.45;;;8.50;;
11747;SDS011;5931;48.832;9.072;2024-01-30T07:57:53;9.82;;;6.28;;
11747;SDS011;5931;48.832;9.072;2024-01-30T08:00:20;20.08;;;7.85;;
11747;SDS011;5931;48.832;9.072;2024-01-30T08:02:47;13.25;;;8.43;;
11747;SDS011;5931;48.832;9.072;2024-01-30T08:05:13;17.20;;;8.38;;
11747;SDS011;5931;48.832;9.072;2024-01-30T08:07:43;12.85;;;8.07;;
11747;SDS011;5931;48.832;9.072;2024-01-30T08:10:11;13.13;;;8.32;;
11747;SDS011;5931;48.832;9.072;2024-01-30T08:12:37;15.95;;;8.15;;
11747;SDS011;5931;48.832;9.072;2024-01-30T08:15:03;23.83;;;10.70;;
11747;SDS011;5931;48.832;9.072;2024-01-30T08:17:29;19.52;;;11.18;;
11747;SDS011;5931;48.832;9.072;2024-01-30T08:19:55;18.10;;;9.80;;
11747;SDS011;5931;48.832;9.072;2024-01-30T08:22:21;23.77;;;10.17;;
11747;SDS011;5931;48.832;9.072;2024-01-30T08:24:47;15.87;;;9.80;;
11747;SDS011;5931;48.832;9.072;2024-01-30T08:27:13;16.30;;;9.40;;
11747;SDS011;5931;48.832;9.072;2024-01-30T08:29:38;13.63;;;8.47;;
11747;SDS011;5931;48.832;9.072;2024-01-30T08:32:07;24.37;;;15.30;;
11747;SDS011;5931;48.832;9.072;2024-01-30T08:34:33;20.67;;;13.05;;
11747;SDS011;5931;48.832;9.072;2024-01-30T08:36:59;19.57;;;11.43;;
11747;SDS011;5931;48.832;9.072;2024-01-30T08:39:25;19.10;;;9.60;;
11747;SDS011;5931;48.832;9.072;2024-01-30T08:41:51;14.27;;;8.63;;
11747;SDS011;5931;48.832;9.072;2024-01-30T08:44:16;14.40;;;7.90;;
11747;SDS011;5931;48.832;9.072;2024-01-30T08:46:43;15.10;;;6.65;;
11747;SDS011;5931;48.832;9.072;2024-01-30T08:49:11;15.93;;;8.45;;
11747;SDS011;5931;48.832;9.072;2024-01-30T08:51:41;15.07;;;8.93;;
11747;SDS011;5931;48.832;9.072;2024-01-30T08:54:07;10.73;;;7.13;;
11747;SDS011;5931;48.832;9.072;2024-01-30T08:56:33;13.80;;;7.87;;
11747;SDS011;5931;48.832;9.072;2024-01-30T08:58:58;14.30;;;8.23;;
11747;SDS011;5931;48.832;9.072;2024-01-30T09:01:25;14.93;;;8.03;;
11747;SDS011;5931;48.832;9.072;2024-01-30T09:03:50;10.37;;;8.10;;
11747;SDS011;5931;48.832;9.072;2024-01-30T09:06:16;10.70;;;6.87;;
11747;SDS011;5931;48.832;9.072;2024-01-30T09:08:43;12.50;;;6.87;;
11747;SDS011;5931;48.832;9.072;2024-01-30T09:11:09;15.23;;;7.90;;
11747;SDS011;5931;48.832;9.072;2024-01-30T09:13:39;11.63;;;7.97;;
11747;SDS011;5931;48.832;9.072;2024-01-30T09:16:05;10.93;;;6.87;;
11747;SDS011;5931;48.832;9.072;2024-01-30T09:18:31;14.80;;;8.23;;
11747;SDS011;5931;48.832;9.072;2024-01-30T09:20:59;21.23;;;8.63;;
11747;SDS011;5931;48.832;9.072;2024-01-30T09:23:26;15.53;;;8.07;;
11747;SDS011;5931;48.832;9.072;2024-01-30T09:25:53;15.60;;;8.00;;
11747;SDS011;5931;48.832;9.072;2024-01-30T09:28:19;13.43;;;7.60;;
11747;SDS011;5931;48.832;9.072;2024-01-30T09:30:45;13.13;;;8.50;;
11747;SDS011;5931;48.832;9.072;2024-01-30T09:33:11;12.93;;;7.83;;
11747;SDS011;5931;48.832;9.072;2024-01-30T09:35:37;12.20;;;7.80;;
11747;SDS011;5931;48.832;9.072;2024-01-30T09:38:02;11.37;;;7.43;;
11747;SDS011;5931;48.832;9.072;2024-01-30T09:40:28;14.47;;;9.17;;
11747;SDS011;5931;48.832;9.072;2024-01-30T09:42:54;10.77;;;7.00;;
11747;SDS011;5931;48.832;9.072;2024-01-30T09:45:24;8.97;;;6.63;;
11747;SDS011;5931;48.832;9.072;2024-01-30T09:47:50;11.83;;;7.50;;
11747;SDS011;5931;48.832;9.072;2024-01-30T09:50:18;12.20;;;7.67;;
11747;SDS011;5931;48.832;9.072;2024-01-30T09:52:45;9.37;;;6.87;;
11747;SDS011;5931;48.832;9.072;2024-01-30T09:55:12;15.60;;;8.40;;
11747;SDS011;5931;48.832;9.072;2024-01-30T09:57:38;7.90;;;6.87;;
11747;SDS011;5931;48.832;9.072;2024-01-30T10:00:05;16.37;;;6.47;;
11747;SDS011;5931;48.832;9.072;2024-01-30T10:02:40;13.20;;;8.30;;
11747;SDS011;5931;48.832;9.072;2024-01-30T10:05:06;13.07;;;7.20;;
11747;SDS011;5931;48.832;9.072;2024-01-30T10:07:33;14.93;;;7.57;;
11747;SDS011;5931;48.832;9.072;2024-01-30T10:09:59;11.90;;;7.37;;
11747;SDS011;5931;48.832;9.072;2024-01-30T10:12:26;9.87;;;7.27;;
11747;SDS011;5931;48.832;9.072;2024-01-30T10:14:52;9.73;;;6.50;;
11747;SDS011;5931;48.832;9.072;2024-01-30T10:17:19;14.23;;;7.07;;
11747;SDS011;5931;48.832;9.072;2024-01-30T10:19:46;12.23;;;6.40;;
11747;SDS011;5931;48.832;9.072;2024-01-30T10:22:12;9.30;;;6.93;;
11747;SDS011;5931;48.832;9.072;2024-01-30T10:24:38;10.47;;;6.93;;
11747;SDS011;5931;48.832;9.072;2024-01-30T10:27:05;13.20;;;7.27;;
11747;SDS011;5931;48.832;9.072;2024-01-30T10:29:31;12.30;;;7.07;;
11747;SDS011;5931;48.832;9.072;2024-01-30T10:32:00;12.87;;;7.03;;
11747;SDS011;5931;48.832;9.072;2024-01-30T10:34:30;12.67;;;7.07;;
11747;SDS011;5931;48.832;9.072;2024-01-30T10:39:38;11.47;;;7.23;;
11747;SDS011;5931;48.832;9.072;2024-01-30T10:42:05;9.60;;;7.17;;
11747;SDS011;5931;48.832;9.072;2024-01-30T10:44:42;17.60;;;8.43;;
11747;SDS011;5931;48.832;9.072;2024-01-30T10:47:11;10.43;;;6.97;;
11747;SDS011;5931;48.832;9.072;2024-01-30T10:49:41;9.67;;;6.73;;
11747;SDS011;5931;48.832;9.072;2024-01-30T10:52:08;8.30;;;7.20;;
11747;SDS011;5931;48.832;9.072;2024-01-30T10:54:34;12.50;;;8.03;;
11747;SDS011;5931;48.832;9.072;2024-01-30T10:57:01;14.23;;;7.43;;
11747;SDS011;5931;48.832;9.072;2024-01-30T10:59:29;14.40;;;7.90;;
11747;SDS011;5931;48.832;9.072;2024-01-30T11:01:57;7.80;;;6.03;;
11747;SDS011;5931;48.832;9.072;2024-01-30T11:04:24;10.60;;;7.53;;
11747;SDS011;5931;48.832;9.072;2024-01-30T11:06:50;18.13;;;8.60;;
11747;SDS011;5931;48.832;9.072;2024-01-30T11:09:17;14.60;;;8.30;;
11747;SDS011;5931;48.832;9.072;2024-01-30T11:11:56;11.90;;;7.10;;
11747;SDS011;5931;48.832;9.072;2024-01-30T11:14:27;14.30;;;7.77;;
11747;SDS011;5931;48.832;9.072;2024-01-30T11:16:58;11.70;;;6.80;;
11747;SDS011;5931;48.832;9.072;2024-01-30T11:19:25;13.85;;;8.50;;
11747;SDS011;5931;48.832;9.072;2024-01-30T11:21:52;9.17;;;7.23;;
11747;SDS011;5931;48.832;9.072;2024-01-30T11:24:25;14.07;;;7.70;;
11747;SDS011;5931;48.832;9.072;2024-01-30T11:27:01;10.83;;;7.27;;
11747;SDS011;5931;48.832;9.072;2024-01-30T11:29:33;8.70;;;6.43;;
11747;SDS011;5931;48.832;9.072;2024-01-30T11:32:00;12.80;;;7.17;;
11747;SDS011;5931;48.832;9.072;2024-01-30T11:34:26;11.33;;;7.30;;
11747;SDS011;5931;48.832;9.072;2024-01-30T11:36:52;10.90;;;6.53;;
11747;SDS011;5931;48.832;9.072;2024-01-30T11:39:25;10.47;;;6.90;;
11747;SDS011;5931;48.832;9.072;2024-01-30T11:41:52;9.70;;;6.37;;
11747;SDS011;5931;48.832;9.072;2024-01-30T11:44:21;14.37;;;6.57;;
11747;SDS011;5931;48.832;9.072;2024-01-30T11:46:48;9.07;;;5.83;;
11747;SDS011;5931;48.832;9.072;2024-01-30T11:49:15;10.83;;;6.67;;
11747;SDS011;5931;48.832;9.072;2024-01-30T11:51:42;11.20;;;6.93;;
11747;SDS011;5931;48.832;9.072;2024-01-30T11:54:10;9.50;;;6.37;;
11747;SDS011;5931;48.832;9.072;2024-01-30T11:56:36;10.00;;;6.47;;
11747;SDS011;5931;48.832;9.072;2024-01-30T11:59:03;10.67;;;6.30;;
11747;SDS011;5931;48.832;9.072;2024-01-30T12:01:30;11.57;;;6.77;;
11747;SDS011;5931;48.832;9.072;2024-01-30T12:03:57;10.67;;;5.73;;
11747;SDS011;5931;48.832;9.072;2024-01-30T12:06:24;10.47;;;5.80;;
11747;SDS011;5931;48.832;9.072;2024-01-30T12:08:57;13.03;;;6.67;;
11747;SDS011;5931;48.832;9.072;2024-01-30T12:11:29;8.53;;;6.00;;
11747;SDS011;5931;48.832;9.072;2024-01-30T12:13:55;13.43;;;6.13;;
11747;SDS011;5931;48.832;9.072;2024-01-30T12:16:21;14.33;;;6.33;;
11747;SDS011;5931;48.832;9.072;2024-01-30T12:18:48;8.47;;;5.50;;
11747;SDS011;5931;48.832;9.072;2024-01-30T12:21:17;8.17;;;5.60;;
11747;SDS011;5931;48.832;9.072;2024-01-30T12:23:43;9.80;;;5.20;;
11747;SDS011;5931;48.832;9.072;2024-01-30T12:26:10;8.07;;;4.90;;
11747;SDS011;5931;48.832;9.072;2024-01-30T12:28:36;7.53;;;4.70;;
11747;SDS011;5931;48.832;9.072;2024-01-30T12:31:02;6.30;;;4.60;;
11747;SDS011;5931;48.832;9.072;2024-01-30T12:33:29;6.67;;;4.43;;
11747;SDS011;5931;48.832;9.072;2024-01-30T12:35:56;5.77;;;4.33;;
11747;SDS011;5931;48.832;9.072;2024-01-30T12:38:26;5.17;;;3.67;;
11747;SDS011;5931;48.832;9.072;2024-01-30T12:40:56;8.20;;;3.40;;
11747;SDS011;5931;48.832;9.072;2024-01-30T12:43:22;7.83;;;3.90;;
11747;SDS011;5931;48.832;9.072;2024-01-30T12:45:50;6.93;;;3.70;;
11747;SDS011;5931;48.832;9.072;2024-01-30T12:48:17;4.37;;;3.53;;
11747;SDS011;5931;48.832;9.072;2024-01-30T12:50:43;8.17;;;3.60;;
11747;SDS011;5931;48.832;9.072;2024-01-30T12:53:09;6.60;;;3.70;;
11747;SDS011;5931;48.832;9.072;2024-01-30T12:55:35;4.90;;;3.70;;
11747;SDS011;5931;48.832;9.072;2024-01-30T12:58:00;5.67;;;3.83;;
11747;SDS011;5931;48.832;9.072;2024-01-30T13:00:26;6.40;;;3.53;;
11747;SDS011;5931;48.832;9.072;2024-01-30T13:02:52;6.43;;;3.60;;
11747;SDS011;5931;48.832;9.072;2024-01-30T13:05:18;5.50;;;4.00;;
11747;SDS011;5931;48.832;9.072;2024-01-30T13:07:44;4.50;;;3.33;;
11747;SDS011;5931;48.832;9.072;2024-01-30T13:10:10;5.50;;;3.10;;
11747;SDS011;5931;48.832;9.072;2024-01-30T13:12:36;4.20;;;3.17;;
11747;SDS011;5931;48.832;9.072;2024-01-30T13:15:03;5.03;;;4.20;;
11747;SDS011;5931;48.832;9.072;2024-01-30T13:17:31;7.33;;;4.10;;
11747;SDS011;5931;48.832;9.072;2024-01-30T13:19:58;10.10;;;4.17;;
11747;SDS011;5931;48.832;9.072;2024-01-30T13:22:24;8.63;;;5.00;;
11747;SDS011;5931;48.832;9.072;2024-01-30T13:24:49;6.43;;;4.53;;
11747;SDS011;5931;48.832;9.072;2024-01-30T13:27:15;9.00;;;4.67;;
11747;SDS011;5931;48.832;9.072;2024-01-30T13:29:43;7.03;;;4.63;;
11747;SDS011;5931;48.832;9.072;2024-01-30T13:32:08;6.17;;;4.80;;
11747;SDS011;5931;48.832;9.072;2024-01-30T13:34:34;6.70;;;4.30;;
11747;SDS011;5931;48.832;9.072;2024-01-30T13:37:00;6.27;;;5.27;;
11747;SDS011;5931;48.832;9.072;2024-01-30T13:39:26;7.50;;;5.23;;
11747;SDS011;5931;48.832;9.072;2024-01-30T13:41:51;8.07;;;5.50;;
11747;SDS011;5931;48.832;9.072;2024-01-30T13:44:17;4.83;;;4.33;;
11747;SDS011;5931;48.832;9.072;2024-01-30T13:46:44;6.70;;;5.47;;
11747;SDS011;5931;48.832;9.072;2024-01-30T13:49:10;7.23;;;4.50;;
11747;SDS011;5931;48.832;9.072;2024-01-30T13:51:36;5.00;;;4.43;;
11747;SDS011;5931;48.832;9.072;2024-01-30T13:54:02;7.03;;;4.30;;
11747;SDS011;5931;48.832;9.072;2024-01-30T13:56:28;5.47;;;3.90;;
11747;SDS011;5931;48.832;9.072;2024-01-30T13:58:55;5.10;;;4.27;;
11747;SDS011;5931;48.832;9.072;2024-01-30T14:01:22;7.93;;;4.40;;
11747;SDS011;5931;48.832;9.072;2024-01-30T14:03:48;6.83;;;4.23;;
11747;SDS011;5931;48.832;9.072;2024-01-30T14:06:14;8.83;;;4.93;;
11747;SDS011;5931;48.832;9.072;2024-01-30T14:08:40;6.43;;;5.13;;
11747;SDS011;5931;48.832;9.072;2024-01-30T14:11:05;9.63;;;7.10;;
11747;SDS011;5931;48.832;9.072;2024-01-30T14:13:32;15.87;;;7.73;;
11747;SDS011;5931;48.832;9.072;2024-01-30T14:15:58;10.30;;;7.50;;
11747;SDS011;5931;48.832;9.072;2024-01-30T14:18:24;12.57;;;7.67;;
11747;SDS011;5931;48.832;9.072;2024-01-30T14:20:50;11.63;;;7.30;;
11747;SDS011;5931;48.832;9.072;2024-01-30T14:23:16;12.70;;;8.87;;
11747;SDS011;5931;48.832;9.072;2024-01-30T14:25:42;13.87;;;8.70;;
11747;SDS011;5931;48.832;9.072;2024-01-30T14:28:09;14.47;;;7.67;;
11747;SDS011;5931;48.832;9.072;2024-01-30T14:30:35;17.70;;;8.33;;
11747;SDS011;5931;48.832;9.072;2024-01-30T14:33:01;13.40;;;8.20;;
11747;SDS011;5931;48.832;9.072;2024-01-30T14:35:27;13.93;;;8.33;;
11747;SDS011;5931;48.832;9.072;2024-01-30T14:37:53;12.40;;;8.20;;
11747;SDS011;5931;48.832;9.072;2024-01-30T14:40:19;12.47;;;7.57;;
11747;SDS011;5931;48.832;9.072;2024-01-30T14:42:45;9.97;;;7.40;;
11747;SDS011;5931;48.832;9.072;2024-01-30T14:45:11;16.73;;;9.40;;
11747;SDS011;5931;48.832;9.072;2024-01-30T14:47:37;12.83;;;8.40;;
11747;SDS011;5931;48.832;9.072;2024-01-30T14:50:03;15.63;;;9.07;;